Time;durP1;ratioP1;P1;durP2;ratioP2;P2;SDS_P1;SDS_P2;PMS_P1;PMS_P2;Temp;Humidity;BMP_temperature;BMP_pressure;BME280_temperature;BME280_humidity;BME280_pressure;Samples;Min_cycle;Max_cycle;Signal;HPM_P1;HPM_P2
2022/08/13 00:02:17;;;;;;;2.20;1.80;;;29.00;22.70;;;;;;5994261;29;20073;-73
2022/08/13 00:05:22;;;;;;;2.95;1.60;;;28.90;22.80;;;;;;6010563;29;20072;-72
2022/08/13 00:08:23;;;;;;;3.00;1.60;;;28.90;22.90;;;;;;5993302;29;20037;-72
2022/08/13 00:14:46;;;;;;;2.17;1.70;;;28.70;23.00;;;;;;6008555;29;20053;-72
2022/08/13 00:17:49;;;;;;;3.58;1.50;;;28.70;23.00;;;;;;5994590;29;20034;-73
2022/08/13 00:20:55;;;;;;;1.48;1.35;;;28.70;23.10;;;;;;5994034;29;20133;-72
2022/08/13 00:23:57;;;;;;;2.85;1.75;;;28.70;23.00;;;;;;5993538;29;20037;-72
2022/08/13 00:26:59;;;;;;;3.45;1.65;;;28.60;23.10;;;;;;5993771;29;20410;-73
2022/08/13 00:30:05;;;;;;;2.55;1.70;;;28.60;23.30;;;;;;5993734;29;20046;-73
2022/08/13 00:33:12;;;;;;;2.05;1.50;;;28.50;23.30;;;;;;6010958;29;20101;-72
2022/08/13 00:36:13;;;;;;;3.95;1.83;;;28.50;23.20;;;;;;5993580;29;20141;-72
2022/08/13 00:39:15;;;;;;;1.80;1.48;;;28.60;23.30;;;;;;5993095;29;20037;-72
2022/08/13 00:42:24;;;;;;;2.92;1.63;;;28.50;23.40;;;;;;6009643;29;20061;-73
2022/08/13 00:45:25;;;;;;;3.55;1.80;;;28.50;23.60;;;;;;6000946;29;20194;-73
2022/08/13 00:48:46;;;;;;;3.33;2.10;;;28.50;23.60;;;;;;6009202;29;20421;-73
2022/08/13 00:51:47;;;;;;;5.28;1.75;;;28.40;23.70;;;;;;6009308;29;20034;-72
2022/08/13 00:54:49;;;;;;;2.22;1.50;;;28.40;23.90;;;;;;6001416;29;20049;-73
2022/08/13 00:57:51;;;;;;;1.60;1.48;;;28.40;24.00;;;;;;6009774;29;20036;-72
2022/08/13 01:00:57;;;;;;;2.72;1.83;;;28.30;24.10;;;;;;5992964;29;20080;-72
2022/08/13 01:03:59;;;;;;;3.05;1.70;;;28.30;24.20;;;;;;6011550;29;20045;-72
2022/08/13 01:07:00;;;;;;;2.50;1.90;;;28.20;24.40;;;;;;5993519;29;20065;-73
2022/08/13 01:10:03;;;;;;;9.18;2.08;;;28.20;24.40;;;;;;5983570;29;20063;-73
2022/08/13 01:13:09;;;;;;;4.18;1.75;;;28.10;24.30;;;;;;6008994;29;20034;-73
2022/08/13 01:16:13;;;;;;;2.03;1.60;;;28.10;24.40;;;;;;6009377;29;20132;-72
2022/08/13 01:19:15;;;;;;;3.28;2.03;;;28.10;24.40;;;;;;6009074;29;20114;-72
2022/08/13 01:22:16;;;;;;;1.60;1.50;;;28.10;24.40;;;;;;6011040;29;20371;-72
2022/08/13 01:25:17;;;;;;;2.45;1.92;;;28.00;24.40;;;;;;6009025;29;20539;-72
2022/08/13 01:28:19;;;;;;;2.53;1.85;;;28.00;24.50;;;;;;6009245;29;20097;-72
2022/08/13 01:31:20;;;;;;;2.85;1.70;;;28.00;24.70;;;;;;5992890;29;20034;-73
2022/08/13 01:34:22;;;;;;;3.15;1.70;;;27.90;25.00;;;;;;6008332;29;20034;-72
2022/08/13 01:37:22;;;;;;;2.30;1.88;;;27.90;25.20;;;;;;6008888;29;20125;-72
2022/08/13 01:40:24;;;;;;;5.40;1.75;;;27.90;25.50;;;;;;5988467;29;20046;-73
2022/08/13 01:43:29;;;;;;;2.58;1.85;;;27.80;25.70;;;;;;6003788;29;20438;-72
2022/08/13 01:53:16;;;;;;;2.33;1.70;;;27.80;26.00;;;;;;6006764;29;20114;-71
2022/08/13 01:56:21;;;;;;;6.80;1.90;;;27.70;26.00;;;;;;6007565;29;20111;-72
2022/08/13 01:59:22;;;;;;;7.00;1.80;;;27.70;26.10;;;;;;5999506;29;20124;-72
2022/08/13 02:02:25;;;;;;;2.03;1.63;;;27.60;26.00;;;;;;6014921;29;20046;-72
2022/08/13 02:05:26;;;;;;;3.70;1.88;;;27.50;26.00;;;;;;6008496;29;20045;-72
2022/08/13 02:08:27;;;;;;;5.38;1.50;;;27.50;26.10;;;;;;6006416;29;20034;-72
2022/08/13 02:11:33;;;;;;;2.65;1.75;;;27.40;26.20;;;;;;6007702;29;20121;-71
2022/08/13 02:14:34;;;;;;;3.88;1.70;;;27.40;26.30;;;;;;6008286;29;20048;-71
2022/08/13 02:17:41;;;;;;;3.45;1.70;;;27.30;26.30;;;;;;6008263;29;20166;-72
2022/08/13 02:20:44;;;;;;;5.43;1.60;;;27.30;26.00;;;;;;6007105;29;20400;-72
2022/08/13 02:23:58;;;;;;;2.97;1.60;;;27.30;25.90;;;;;;5991509;29;20057;-71
2022/08/13 02:26:59;;;;;;;2.85;1.88;;;27.30;25.90;;;;;;6007951;29;20054;-72
2022/08/13 02:29:59;;;;;;;2.35;1.60;;;27.30;26.00;;;;;;6007964;29;20170;-72
2022/08/13 02:33:00;;;;;;;3.95;1.83;;;27.30;26.10;;;;;;6007722;29;20067;-71
2022/08/13 02:36:10;;;;;;;4.90;2.00;;;27.30;26.30;;;;;;6014091;29;20125;-72
2022/08/13 02:39:11;;;;;;;2.58;1.80;;;27.30;26.40;;;;;;6007559;29;20050;-72
2022/08/13 02:42:12;;;;;;;2.65;1.88;;;27.30;26.50;;;;;;6006332;29;20067;-72
2022/08/13 02:45:15;;;;;;;2.13;1.77;;;27.20;26.60;;;;;;6007838;29;20038;-72
2022/08/13 02:48:17;;;;;;;3.53;1.73;;;27.20;26.70;;;;;;6007946;29;20037;-72
2022/08/13 02:51:20;;;;;;;2.83;1.75;;;27.20;26.80;;;;;;6006549;29;20532;-71
2022/08/13 02:54:21;;;;;;;2.33;1.77;;;27.20;27.00;;;;;;6006519;29;20376;-71
2022/08/13 02:57:23;;;;;;;2.35;1.60;;;27.10;27.00;;;;;;6007909;29;20057;-71
2022/08/13 03:00:24;;;;;;;2.28;1.55;;;27.10;27.00;;;;;;6000893;29;20486;-71
2022/08/13 03:03:26;;;;;;;1.58;1.45;;;27.00;26.90;;;;;;5988324;29;20474;-71
2022/08/13 03:06:27;;;;;;;2.38;1.70;;;27.00;27.00;;;;;;6006561;29;20472;-72
2022/08/13 03:09:29;;;;;;;2.03;1.90;;;26.90;27.00;;;;;;6007756;29;20046;-72
2022/08/13 03:12:32;;;;;;;5.88;1.80;;;26.80;27.30;;;;;;6014030;29;20038;-72
2022/08/13 03:15:34;;;;;;;1.92;1.67;;;26.80;27.30;;;;;;6007695;29;20482;-72
2022/08/13 03:18:35;;;;;;;8.93;2.10;;;26.70;27.30;;;;;;6008297;29;20042;-71
2022/08/13 03:21:39;;;;;;;2.55;1.67;;;26.70;27.40;;;;;;5997682;29;20093;-71
2022/08/13 03:24:40;;;;;;;7.03;1.88;;;26.70;27.50;;;;;;6012581;29;20113;-71
2022/08/13 03:27:41;;;;;;;2.95;1.67;;;26.60;27.40;;;;;;6013156;29;20371;-71
2022/08/13 03:30:43;;;;;;;2.63;1.80;;;26.60;27.50;;;;;;6013186;29;20033;-70
2022/08/13 03:33:44;;;;;;;10.55;2.05;;;26.60;27.50;;;;;;6006449;29;20384;-71
2022/08/13 03:36:46;;;;;;;2.17;1.77;;;26.50;27.50;;;;;;6005342;29;20046;-71
2022/08/13 03:39:46;;;;;;;2.35;1.67;;;26.50;27.40;;;;;;6010980;29;20076;-71
2022/08/13 03:42:48;;;;;;;2.70;1.70;;;26.50;27.40;;;;;;6012311;29;20045;-71
2022/08/13 03:45:50;;;;;;;1.95;1.73;;;26.50;27.30;;;;;;5995768;29;20468;-71
2022/08/13 03:48:52;;;;;;;4.40;2.20;;;26.50;27.30;;;;;;5995977;29;20732;-71
2022/08/13 03:51:52;;;;;;;3.25;1.80;;;26.50;27.20;;;;;;5996409;29;20470;-71
2022/08/13 03:54:55;;;;;;;2.83;1.75;;;26.50;27.20;;;;;;5995790;29;20061;-71
2022/08/13 03:57:57;;;;;;;6.50;1.65;;;26.40;27.20;;;;;;5996156;29;20038;-71
2022/08/13 04:00:59;;;;;;;3.78;2.05;;;26.40;27.30;;;;;;6006133;29;20070;-71
2022/08/13 04:04:02;;;;;;;3.25;2.03;;;26.30;27.30;;;;;;5995000;29;20097;-71
2022/08/13 04:07:04;;;;;;;3.70;1.98;;;26.30;27.30;;;;;;5995390;29;20045;-71
2022/08/13 04:10:06;;;;;;;3.55;2.15;;;26.30;27.50;;;;;;6010836;29;20062;-71
2022/08/13 04:13:12;;;;;;;4.88;1.88;;;26.30;27.80;;;;;;6011651;29;20061;-72
2022/08/13 04:16:15;;;;;;;3.13;1.98;;;26.40;28.30;;;;;;6011700;29;20129;-72
2022/08/13 04:19:16;;;;;;;4.72;2.25;;;26.30;28.70;;;;;;5994414;29;20117;-72
2022/08/13 04:22:18;;;;;;;3.13;2.20;;;26.20;29.10;;;;;;6011584;29;20110;-73
2022/08/13 04:25:19;;;;;;;2.08;1.75;;;26.10;29.30;;;;;;6010777;29;20540;-72
2022/08/13 04:28:21;;;;;;;3.85;1.95;;;26.00;29.50;;;;;;5995342;29;20038;-71
2022/08/13 04:31:22;;;;;;;3.28;1.73;;;25.90;29.50;;;;;;5980563;29;20042;-72
2022/08/13 04:34:26;;;;;;;11.90;1.88;;;25.90;29.30;;;;;;5995864;29;20049;-73
2022/08/13 04:37:27;;;;;;;2.90;2.10;;;25.80;29.00;;;;;;6010480;29;20360;-72
2022/08/13 04:40:28;;;;;;;6.70;2.13;;;25.80;29.00;;;;;;5994568;29;20053;-71
2022/08/13 04:43:29;;;;;;;2.53;1.70;;;25.80;29.30;;;;;;6010833;29;20472;-71
2022/08/13 04:46:30;;;;;;;5.03;2.10;;;25.80;29.50;;;;;;6010873;29;20117;-72
2022/08/13 04:49:31;;;;;;;5.65;1.95;;;25.80;29.60;;;;;;5994309;29;20037;-72
2022/08/13 04:52:33;;;;;;;3.38;1.85;;;25.80;29.70;;;;;;5994786;29;20045;-73
2022/08/13 04:55:36;;;;;;;3.83;1.98;;;25.70;29.70;;;;;;5989260;29;20038;-72
2022/08/13 04:58:36;;;;;;;6.63;2.10;;;25.70;29.80;;;;;;5993824;29;20141;-72
2022/08/13 05:01:38;;;;;;;3.13;1.98;;;25.60;30.00;;;;;;5995636;29;20472;-71
2022/08/13 05:04:39;;;;;;;4.50;2.15;;;25.60;30.10;;;;;;6000501;29;20040;-73
2022/08/13 05:07:41;;;;;;;6.93;1.80;;;25.60;30.10;;;;;;5994464;29;20121;-73
2022/08/13 05:10:43;;;;;;;2.63;2.30;;;25.60;30.30;;;;;;6010329;29;20098;-73
2022/08/13 05:13:45;;;;;;;2.80;2.30;;;25.50;30.40;;;;;;6009747;29;20046;-72
2022/08/13 05:16:46;;;;;;;4.35;1.83;;;25.40;30.40;;;;;;5995299;29;20038;-72
2022/08/13 05:19:47;;;;;;;2.40;1.85;;;25.40;30.50;;;;;;6013907;29;20095;-73
2022/08/13 05:22:48;;;;;;;2.50;2.20;;;25.40;30.50;;;;;;6005591;29;20428;-72
2022/08/13 05:25:50;;;;;;;6.32;2.08;;;25.40;30.50;;;;;;5994823;29;20042;-72
2022/08/13 05:28:51;;;;;;;3.20;1.90;;;25.50;30.50;;;;;;5995273;29;20046;-73
2022/08/13 05:31:54;;;;;;;13.40;2.42;;;25.50;30.60;;;;;;5994822;29;20064;-72
2022/08/13 05:34:55;;;;;;;4.32;2.25;;;25.50;30.60;;;;;;5995111;29;20202;-73
2022/08/13 05:37:56;;;;;;;3.13;2.20;;;25.50;30.50;;;;;;6010439;29;20042;-72
2022/08/13 05:40:59;;;;;;;3.03;1.98;;;25.60;30.50;;;;;;5994416;29;20431;-72
2022/08/13 05:44:00;;;;;;;3.90;1.88;;;25.60;30.80;;;;;;5994675;29;20068;-74
2022/08/13 05:47:02;;;;;;;2.35;1.80;;;25.60;30.40;;;;;;6009832;29;20045;-73
2022/08/13 05:50:13;;;;;;;6.68;2.40;;;25.60;30.30;;;;;;6011066;29;20093;-71
2022/08/13 05:53:15;;;;;;;5.03;2.47;;;25.70;30.00;;;;;;6005327;29;20049;-72
2022/08/13 05:56:16;;;;;;;8.68;2.40;;;25.70;29.80;;;;;;5991947;29;20052;-72
2022/08/13 06:05:58;;;;;;;3.58;2.40;;;25.80;29.60;;;;;;6008029;29;20468;-72
2022/08/13 06:08:59;;;;;;;4.07;2.17;;;25.90;29.60;;;;;;5975027;29;20045;-73
2022/08/13 06:12:00;;;;;;;3.55;2.05;;;26.00;29.60;;;;;;5993057;29;20121;-73
2022/08/13 06:15:01;;;;;;;4.00;2.35;;;26.10;29.60;;;;;;6009029;29;20178;-72
2022/08/13 06:18:02;;;;;;;16.40;2.28;;;26.10;29.40;;;;;;6009084;29;20413;-72
2022/08/13 06:21:06;;;;;;;8.45;2.10;;;26.20;29.30;;;;;;5993099;29;20052;-72
2022/08/13 06:24:07;;;;;;;3.97;2.28;;;26.20;29.20;;;;;;6008573;29;20122;-73
2022/08/13 06:27:11;;;;;;;3.95;2.25;;;26.30;29.20;;;;;;6008748;29;20030;-72
2022/08/13 06:30:17;;;;;;;2.40;1.83;;;26.40;29.10;;;;;;5993613;29;20484;-72
2022/08/13 06:33:21;;;;;;;5.43;2.13;;;26.50;29.00;;;;;;5998639;29;20038;-73
2022/08/13 06:36:29;;;;;;;3.45;2.00;;;26.50;28.90;;;;;;6008965;29;20062;-73
2022/08/13 06:39:32;;;;;;;7.90;1.90;;;26.50;29.10;;;;;;5991841;29;20501;-72
2022/08/13 06:42:34;;;;;;;5.22;2.20;;;26.60;29.00;;;;;;5997171;29;20073;-73
2022/08/13 06:45:36;;;;;;;3.00;2.00;;;26.60;29.00;;;;;;6008997;29;20388;-72
2022/08/13 06:48:37;;;;;;;2.63;2.00;;;26.60;29.00;;;;;;6008330;29;20045;-72
2022/08/13 06:51:38;;;;;;;3.28;2.03;;;26.70;29.10;;;;;;6007288;29;20038;-73
2022/08/13 06:54:39;;;;;;;7.68;2.08;;;26.70;29.10;;;;;;6008439;29;20049;-73
2022/08/13 06:57:40;;;;;;;4.22;1.63;;;26.80;29.40;;;;;;6009430;29;20143;-72
2022/08/13 07:00:41;;;;;;;2.55;1.80;;;26.90;29.20;;;;;;6011907;29;20038;-72
2022/08/13 07:03:43;;;;;;;4.28;2.17;;;27.00;29.20;;;;;;6010217;29;20045;-73
2022/08/13 07:06:47;;;;;;;8.43;1.88;;;27.00;29.20;;;;;;6014402;29;20046;-73
2022/08/13 07:09:49;;;;;;;2.00;1.50;;;27.20;29.20;;;;;;6013145;29;20145;-72
2022/08/13 07:12:51;;;;;;;5.65;2.03;;;27.30;29.20;;;;;;6012854;29;20384;-73
2022/08/13 07:15:52;;;;;;;2.30;1.60;;;27.30;29.10;;;;;;6022211;29;20544;-72
2022/08/13 07:18:54;;;;;;;9.43;2.03;;;27.40;29.10;;;;;;6011389;29;20057;-71
2022/08/13 07:21:54;;;;;;;1.50;1.40;;;27.50;29.20;;;;;;6019314;29;20164;-72
2022/08/13 07:24:55;;;;;;;3.25;1.80;;;27.60;29.30;;;;;;6013520;29;20629;-72
2022/08/13 07:27:59;;;;;;;10.90;1.98;;;27.70;29.40;;;;;;6012537;29;20454;-72
2022/08/13 07:31:03;;;;;;;8.05;1.83;;;27.70;29.50;;;;;;6013503;29;20366;-71
2022/08/13 07:34:05;;;;;;;2.53;1.60;;;27.80;29.50;;;;;;6011328;29;20038;-72
2022/08/13 07:37:06;;;;;;;2.63;1.58;;;27.80;29.50;;;;;;6013792;29;20049;-72
2022/08/13 07:40:08;;;;;;;3.22;1.55;;;28.00;29.50;;;;;;6015330;29;20042;-73
2022/08/13 07:43:11;;;;;;;6.90;1.90;;;28.10;29.50;;;;;;6012495;29;20068;-72
2022/08/13 07:46:15;;;;;;;2.50;1.42;;;28.20;29.50;;;;;;6027854;29;20046;-73
2022/08/13 07:49:18;;;;;;;3.72;1.45;;;28.30;29.40;;;;;;6013054;29;20038;-72
2022/08/13 07:52:19;;;;;;;3.28;1.63;;;28.50;29.30;;;;;;5997046;29;20060;-72
2022/08/13 07:55:20;;;;;;;3.92;2.08;;;28.60;29.20;;;;;;6011134;29;20376;-74
2022/08/13 07:58:27;;;;;;;1.38;1.25;;;28.70;29.10;;;;;;6013265;29;20030;-72
2022/08/13 08:01:34;;;;;;;3.25;1.67;;;28.80;29.00;;;;;;6011902;29;20030;-72
2022/08/13 08:04:37;;;;;;;8.30;1.50;;;28.90;28.90;;;;;;6011400;29;20065;-74
2022/08/13 08:07:38;;;;;;;2.97;1.77;;;28.90;28.90;;;;;;6011033;29;20105;-72
2022/08/13 08:10:40;;;;;;;2.53;1.75;;;29.10;28.90;;;;;;6011376;29;20045;-73
2022/08/13 08:13:41;;;;;;;2.42;1.80;;;29.10;28.80;;;;;;6011089;29;20121;-72
2022/08/13 08:16:44;;;;;;;2.35;1.60;;;29.20;28.90;;;;;;6012850;29;20364;-72
2022/08/13 08:19:47;;;;;;;2.35;1.50;;;29.40;28.80;;;;;;6012575;29;20050;-72
2022/08/13 08:22:49;;;;;;;1.98;1.73;;;29.40;28.60;;;;;;6012757;29;20034;-73
2022/08/13 08:25:53;;;;;;;2.28;1.75;;;29.50;28.60;;;;;;6012462;29;20046;-73
2022/08/13 08:28:56;;;;;;;5.32;1.70;;;29.60;28.50;;;;;;6013811;29;20396;-73
2022/08/13 08:31:59;;;;;;;2.17;1.60;;;29.70;28.30;;;;;;6011605;29;20038;-72
2022/08/13 08:35:01;;;;;;;4.82;1.60;;;29.90;28.20;;;;;;6011260;29;20049;-71
2022/08/13 08:44:42;;;;;;;3.28;2.33;;;30.00;28.00;;;;;;6011016;29;20399;-73
2022/08/13 08:47:44;;;;;;;8.18;1.75;;;30.10;27.90;;;;;;6010344;29;20038;-72
2022/08/13 08:50:45;;;;;;;8.18;1.92;;;30.20;27.90;;;;;;5994795;29;20053;-72
2022/08/13 08:53:47;;;;;;;2.65;1.40;;;30.40;27.70;;;;;;5994104;29;20042;-72
2022/08/13 08:56:54;;;;;;;9.35;4.75;;;30.50;27.50;;;;;;6010209;29;20129;-72
2022/08/13 08:59:55;;;;;;;7.82;4.82;;;30.70;27.30;;;;;;6009897;29;20065;-73
2022/08/13 09:02:56;;;;;;;8.88;2.80;;;30.80;26.90;;;;;;5993921;29;20050;-72
2022/08/13 09:05:57;;;;;;;6.32;2.13;;;30.80;26.80;;;;;;5992762;29;20417;-72
2022/08/13 09:09:03;;;;;;;6.63;2.83;;;30.90;26.90;;;;;;6009023;29;20129;-73
2022/08/13 09:12:07;;;;;;;5.90;2.47;;;30.90;26.70;;;;;;5993499;29;20102;-73
2022/08/13 09:15:21;;;;;;;5.53;3.20;;;30.90;26.60;;;;;;5985443;29;20038;-73
2022/08/13 09:18:23;;;;;;;6.93;3.10;;;31.00;26.60;;;;;;6005616;29;20041;-74
2022/08/13 09:21:25;;;;;;;7.55;3.88;;;31.20;26.70;;;;;;5993145;29;20129;-74
2022/08/13 09:24:26;;;;;;;3.75;1.90;;;31.40;26.40;;;;;;6008960;29;20037;-72
2022/08/13 09:27:28;;;;;;;5.13;2.00;;;31.50;26.20;;;;;;5994684;29;20042;-72
2022/08/13 09:30:30;;;;;;;5.55;1.65;;;31.60;26.10;;;;;;6009489;29;20141;-72
2022/08/13 09:33:31;;;;;;;8.25;1.90;;;31.80;26.00;;;;;;6008950;29;20034;-73
2022/08/13 09:36:33;;;;;;;4.03;1.73;;;31.80;25.70;;;;;;6003369;29;20076;-73
2022/08/13 09:39:51;;;;;;;6.80;2.00;;;31.90;25.60;;;;;;5992657;29;20471;-73
2022/08/13 09:42:57;;;;;;;7.97;2.70;;;31.90;25.50;;;;;;5991057;29;20042;-71
2022/08/13 09:45:58;;;;;;;6.68;3.45;;;32.00;25.40;;;;;;6008375;29;20038;-71
2022/08/13 09:48:59;;;;;;;4.57;2.00;;;32.10;25.40;;;;;;6007641;29;20380;-72
2022/08/13 09:52:00;;;;;;;2.40;1.77;;;32.20;25.50;;;;;;6008467;29;20062;-71
2022/08/13 09:55:00;;;;;;;3.60;1.95;;;32.30;25.60;;;;;;6008804;29;20459;-73
2022/08/13 09:58:01;;;;;;;3.67;2.40;;;32.50;25.80;;;;;;5990636;29;20491;-73
2022/08/13 10:01:02;;;;;;;9.98;1.60;;;32.50;25.60;;;;;;6007512;29;20096;-73
2022/08/13 10:04:04;;;;;;;3.20;1.73;;;32.60;25.60;;;;;;6007794;29;20183;-72
2022/08/13 10:07:07;;;;;;;11.25;1.80;;;32.60;25.70;;;;;;6008471;29;20083;-72
2022/08/13 10:10:09;;;;;;;6.43;4.32;;;32.70;25.70;;;;;;6004885;29;20053;-73
2022/08/13 10:13:13;;;;;;;7.32;2.50;;;32.70;25.70;;;;;;6006739;29;20045;-72
2022/08/13 10:16:14;;;;;;;7.75;2.42;;;32.80;25.70;;;;;;6008305;29;20429;-72
2022/08/13 10:19:15;;;;;;;7.15;1.88;;;32.80;25.60;;;;;;5977596;29;20041;-72
2022/08/13 10:22:16;;;;;;;4.10;2.50;;;32.90;25.50;;;;;;6008736;29;20038;-71
2022/08/13 10:25:17;;;;;;;3.28;1.67;;;32.90;25.40;;;;;;6007226;29;20049;-72
2022/08/13 10:28:34;;;;;;;6.10;2.30;;;33.00;25.20;;;;;;6007477;29;20038;-72
2022/08/13 10:31:35;;;;;;;2.92;1.90;;;33.10;25.30;;;;;;6006937;29;20046;-72
2022/08/13 10:34:36;;;;;;;5.70;1.90;;;33.20;25.20;;;;;;6010183;29;20065;-74
2022/08/13 10:37:45;;;;;;;4.38;1.67;;;33.20;25.00;;;;;;6013688;29;20034;-72
2022/08/13 10:40:47;;;;;;;9.48;1.60;;;33.20;24.80;;;;;;6002335;29;20038;-73
2022/08/13 10:43:49;;;;;;;5.53;2.00;;;33.30;24.70;;;;;;6007738;29;20050;-71
2022/08/13 10:46:50;;;;;;;2.10;1.67;;;33.30;24.60;;;;;;5983180;29;20038;-73
2022/08/13 10:49:53;;;;;;;4.22;1.70;;;33.30;24.70;;;;;;5990794;29;20446;-73
2022/08/13 10:52:58;;;;;;;8.10;1.95;;;33.40;24.90;;;;;;6008017;29;20066;-73
2022/08/13 10:55:59;;;;;;;3.40;1.75;;;33.40;24.80;;;;;;6007254;29;20118;-72
2022/08/13 10:59:03;;;;;;;3.85;1.77;;;33.70;24.50;;;;;;5990911;29;20480;-73
2022/08/13 11:02:06;;;;;;;2.55;1.85;;;34.10;24.10;;;;;;6007433;29;20038;-74
2022/08/13 11:05:09;;;;;;;3.08;1.65;;;34.60;23.70;;;;;;6008106;29;20101;-72
2022/08/13 11:08:14;;;;;;;3.78;2.22;;;35.10;23.30;;;;;;5975879;29;20062;-72
2022/08/13 11:11:15;;;;;;;2.22;1.70;;;35.70;22.90;;;;;;6009324;29;20491;-72
2022/08/13 11:14:18;;;;;;;3.22;1.55;;;36.20;22.40;;;;;;6006407;29;20046;-72
2022/08/13 11:17:19;;;;;;;1.55;1.40;;;36.50;21.70;;;;;;6006600;29;20472;-73
2022/08/13 11:20:24;;;;;;;2.45;1.25;;;36.80;21.40;;;;;;5991217;29;20133;-73
2022/08/13 11:23:25;;;;;;;3.38;1.83;;;37.10;20.80;;;;;;6005969;29;20511;-73
2022/08/13 11:26:26;;;;;;;8.68;2.47;;;37.50;20.60;;;;;;6006056;29;20038;-73
2022/08/13 11:29:30;;;;;;;2.13;1.52;;;37.80;20.60;;;;;;6005172;29;20130;-73
2022/08/13 11:32:31;;;;;;;5.15;1.30;;;38.10;20.00;;;;;;6005918;29;20077;-71
2022/08/13 11:35:34;;;;;;;4.28;1.90;;;38.30;19.40;;;;;;6005483;29;20046;-73
2022/08/13 11:38:35;;;;;;;5.00;1.80;;;38.40;19.20;;;;;;6005836;29;20054;-71
2022/08/13 11:41:36;;;;;;;3.22;1.23;;;38.50;19.00;;;;;;5989231;29;20050;-72
2022/08/13 11:44:36;;;;;;;1.77;1.38;;;38.70;19.00;;;;;;5977937;29;20065;-73
2022/08/13 11:47:40;;;;;;;8.93;1.40;;;38.90;18.60;;;;;;6010372;29;20048;-73
2022/08/13 11:50:41;;;;;;;2.53;1.10;;;39.10;17.90;;;;;;5993163;29;20037;-72
2022/08/13 11:53:42;;;;;;;2.03;1.25;;;39.00;17.80;;;;;;6010670;29;20046;-72
2022/08/13 11:56:43;;;;;;;4.28;1.20;;;39.00;17.30;;;;;;6008939;29;20073;-74
2022/08/13 11:59:44;;;;;;;7.93;2.67;;;39.00;17.10;;;;;;6010005;29;20061;-72
2022/08/13 12:02:45;;;;;;;31.02;14.75;;;38.80;17.10;;;;;;6009512;29;20042;-72
2022/08/13 12:05:46;;;;;;;6.50;2.35;;;38.60;17.50;;;;;;6011325;29;20089;-71
2022/08/13 12:08:47;;;;;;;4.10;2.38;;;38.50;17.50;;;;;;5973026;29;20041;-73
2022/08/13 12:11:47;;;;;;;7.47;1.77;;;38.30;17.40;;;;;;5978652;29;20041;-72
2022/08/13 12:14:50;;;;;;;14.57;3.78;;;38.20;17.00;;;;;;5993479;29;20042;-72
2022/08/13 12:17:51;;;;;;;8.38;3.30;;;38.20;16.90;;;;;;6010124;29;20126;-73
2022/08/13 12:20:51;;;;;;;10.50;5.90;;;38.30;17.10;;;;;;6009846;29;20046;-73
2022/08/13 12:23:52;;;;;;;4.38;2.50;;;38.40;16.40;;;;;;6009086;29;20432;-72
2022/08/13 12:26:53;;;;;;;4.38;2.20;;;38.50;16.00;;;;;;6009419;29;20196;-73
2022/08/13 12:29:55;;;;;;;4.78;1.67;;;38.70;15.50;;;;;;5991577;29;20133;-73
2022/08/13 12:32:56;;;;;;;3.58;1.90;;;38.90;16.00;;;;;;6008862;29;20113;-72
2022/08/13 12:36:01;;;;;;;4.15;1.27;;;39.00;15.30;;;;;;6012019;29;20038;-72
2022/08/13 12:39:02;;;;;;;3.33;1.05;;;39.40;15.00;;;;;;6009216;29;20057;-71
2022/08/13 12:42:03;;;;;;;3.42;1.70;;;39.90;14.30;;;;;;6007209;29;20082;-72
2022/08/13 12:45:05;;;;;;;2.80;1.58;;;40.40;13.90;;;;;;6009481;29;20092;-72
2022/08/13 12:48:16;;;;;;;5.97;1.40;;;40.80;14.40;;;;;;6006432;29;20042;-72
2022/08/13 12:51:17;;;;;;;1.60;1.30;;;41.00;14.20;;;;;;6008774;29;20030;-71
2022/08/13 12:54:18;;;;;;;4.15;1.23;;;41.50;13.40;;;;;;6008394;29;20139;-72
2022/08/13 12:57:19;;;;;;;4.05;1.55;;;41.90;13.30;;;;;;6008017;29;20417;-72
2022/08/13 13:00:20;;;;;;;1.52;1.40;;;42.50;13.20;;;;;;6008578;29;20038;-72
2022/08/13 13:03:22;;;;;;;4.22;1.65;;;43.00;13.30;;;;;;6008980;29;20038;-72
2022/08/13 13:06:22;;;;;;;2.53;1.60;;;43.30;13.20;;;;;;6011122;29;20110;-72
2022/08/13 13:09:23;;;;;;;2.35;1.58;;;43.40;13.20;;;;;;6012888;29;20451;-72
2022/08/13 13:12:25;;;;;;;1.30;1.10;;;43.60;13.20;;;;;;6019333;29;20463;-73
2022/08/13 13:15:26;;;;;;;5.85;1.70;;;43.80;12.90;;;;;;5993416;29;20042;-73
2022/08/13 13:18:28;;;;;;;1.90;1.13;;;44.00;12.70;;;;;;5993679;29;20038;-71
2022/08/13 13:21:33;;;;;;;1.95;1.40;;;44.40;12.60;;;;;;6008217;29;20393;-72
2022/08/13 13:24:35;;;;;;;3.13;1.88;;;45.10;12.40;;;;;;6009336;29;20041;-72
2022/08/13 13:27:36;;;;;;;4.07;1.23;;;45.30;12.30;;;;;;6010528;29;20141;-72
2022/08/13 13:30:38;;;;;;;1.42;1.33;;;45.40;12.00;;;;;;6004305;29;20486;-72
2022/08/13 13:33:39;;;;;;;6.60;1.48;;;45.90;11.60;;;;;;6010547;29;20525;-73
2022/08/13 13:36:39;;;;;;;1.85;1.23;;;46.40;11.50;;;;;;6009306;29;20042;-73
2022/08/13 13:39:41;;;;;;;2.28;1.58;;;46.50;11.60;;;;;;6024819;29;20052;-72
2022/08/13 13:42:42;;;;;;;3.10;1.60;;;46.30;11.80;;;;;;6009001;29;20495;-72
2022/08/13 13:45:43;;;;;;;3.95;1.38;;;46.10;11.80;;;;;;6023858;29;20128;-72
2022/08/13 13:48:44;;;;;;;2.38;1.55;;;46.10;11.70;;;;;;6010729;29;20054;-72
2022/08/13 13:51:45;;;;;;;2.15;1.30;;;46.10;11.60;;;;;;6010680;29;20114;-72
2022/08/13 13:54:46;;;;;;;1.75;1.20;;;46.30;11.50;;;;;;6009911;29;20082;-72
2022/08/13 13:57:47;;;;;;;5.88;1.38;;;46.90;11.40;;;;;;6010478;29;20042;-72
2022/08/13 14:00:49;;;;;;;3.20;1.15;;;47.40;10.90;;;;;;6010050;29;20049;-73
2022/08/13 14:03:50;;;;;;;4.32;1.02;;;47.90;10.80;;;;;;6020707;29;20045;-72
2022/08/13 14:07:00;;;;;;;2.88;1.15;;;47.90;10.50;;;;;;6009016;29;20045;-73
2022/08/13 14:10:01;;;;;;;5.03;1.30;;;47.80;10.70;;;;;;6007218;29;20042;-73
2022/08/13 14:13:03;;;;;;;1.40;1.00;;;47.80;10.30;;;;;;6008287;29;20034;-73
2022/08/13 14:16:05;;;;;;;2.15;1.27;;;47.80;10.30;;;;;;6008462;29;20041;-72
2022/08/13 14:19:07;;;;;;;0.93;0.93;;;47.60;10.50;;;;;;6007932;29;20468;-72
2022/08/13 14:22:08;;;;;;;1.20;1.10;;;47.10;10.50;;;;;;6008664;29;20034;-71
2022/08/13 14:25:11;;;;;;;1.10;0.90;;;47.00;10.30;;;;;;6008468;29;20122;-71
2022/08/13 14:28:13;;;;;;;0.88;0.82;;;47.10;10.10;;;;;;6009703;29;20507;-72
2022/08/13 14:31:15;;;;;;;3.40;1.10;;;47.50;9.90;;;;;;6009719;29;20373;-72
2022/08/13 14:34:16;;;;;;;0.70;0.70;;;47.50;9.70;;;;;;6010142;29;20073;-72
2022/08/13 14:37:17;;;;;;;1.85;1.30;;;47.70;9.30;;;;;;6009683;29;20049;-73
2022/08/13 14:40:19;;;;;;;1.90;0.98;;;47.00;9.80;;;;;;6009432;29;20057;-72
2022/08/13 14:43:26;;;;;;;2.70;1.20;;;45.70;10.20;;;;;;6008402;29;20372;-72
2022/08/13 14:46:30;;;;;;;1.02;1.00;;;44.30;11.20;;;;;;6009617;29;20034;-72
2022/08/13 14:49:34;;;;;;;1.70;1.20;;;43.10;11.60;;;;;;6008062;29;20057;-72
2022/08/13 14:52:35;;;;;;;3.08;1.05;;;42.20;11.80;;;;;;6006836;29;20034;-71
2022/08/13 14:55:38;;;;;;;1.85;1.10;;;41.30;12.90;;;;;;6002009;29;20412;-72
2022/08/13 14:58:38;;;;;;;3.38;1.10;;;40.30;13.00;;;;;;6008055;29;20421;-72
2022/08/13 15:01:40;;;;;;;1.20;0.82;;;39.60;13.10;;;;;;6006634;29;20122;-72
2022/08/13 15:04:41;;;;;;;1.35;0.85;;;39.00;13.50;;;;;;6011414;29;20042;-72
2022/08/13 15:07:45;;;;;;;0.75;0.75;;;38.40;13.80;;;;;;6009356;29;20034;-72
2022/08/13 15:10:51;;;;;;;5.85;1.25;;;38.00;14.10;;;;;;6008707;29;20392;-72
2022/08/13 15:13:53;;;;;;;2.75;1.25;;;37.70;14.10;;;;;;6006768;29;20165;-72
2022/08/13 15:16:55;;;;;;;1.00;0.90;;;37.50;13.90;;;;;;6009383;29;20034;-71
2022/08/13 15:19:56;;;;;;;2.55;1.92;;;37.30;14.00;;;;;;6012283;29;20057;-72
2022/08/13 15:22:58;;;;;;;2.08;1.40;;;37.20;14.40;;;;;;6012944;29;20049;-72
2022/08/13 15:26:06;;;;;;;1.10;1.00;;;37.00;14.70;;;;;;6013816;29;20481;-72
2022/08/13 15:29:07;;;;;;;0.80;0.80;;;36.80;14.50;;;;;;6013410;29;20420;-72
2022/08/13 15:32:08;;;;;;;1.73;1.02;;;36.60;14.40;;;;;;6012220;29;20067;-71
2022/08/13 15:35:13;;;;;;;2.10;0.90;;;36.60;14.50;;;;;;6013937;29;20346;-71
2022/08/13 15:38:22;;;;;;;3.33;0.90;;;36.50;14.50;;;;;;6013408;29;20138;-72
2022/08/13 15:41:22;;;;;;;1.33;0.90;;;36.70;14.20;;;;;;6011368;29;20062;-72
2022/08/13 15:44:23;;;;;;;2.08;1.00;;;37.80;13.70;;;;;;5996332;29;20114;-72
2022/08/13 15:47:25;;;;;;;1.48;0.90;;;39.80;12.10;;;;;;5996453;29;20042;-73
2022/08/13 15:50:31;;;;;;;5.53;0.82;;;41.90;11.30;;;;;;6012945;29;20105;-71
2022/08/13 15:53:32;;;;;;;3.20;0.82;;;43.50;10.40;;;;;;6012229;29;20042;-72
2022/08/13 15:56:33;;;;;;;1.08;0.77;;;44.70;9.80;;;;;;6012605;29;20129;-72
2022/08/13 15:59:34;;;;;;;0.80;0.80;;;45.70;9.20;;;;;;5996598;29;20367;-72
2022/08/13 16:02:35;;;;;;;0.80;0.80;;;46.60;8.70;;;;;;6012444;29;20048;-72
2022/08/13 16:05:36;;;;;;;2.53;0.88;;;47.50;8.30;;;;;;5996592;29;20460;-73
2022/08/13 16:08:37;;;;;;;3.13;0.77;;;48.00;7.90;;;;;;6012107;29;20114;-72
2022/08/13 16:11:38;;;;;;;5.63;0.95;;;48.30;8.00;;;;;;5995406;29;20049;-73
2022/08/13 16:14:40;;;;;;;0.73;0.73;;;48.40;7.70;;;;;;5980944;29;20344;-72